Aviation Digital Data Service (ADDS)

Output produced by METARs form (1345 UTC 26 May 2018)
found at http://www.aviationweather.gov/adds/metars/
 
TAF HBBA 261100Z 2612/2718 18010G15KT 9999 FEW030 SCT100 
     BECMG2617/2619 00000KT CAVOK 
     BECMG2602/2604 36002KT 
     BECMG2707/2709 18010G15KT 9999 FEW030 SCT100